sensor_id;sensor_type;location;lat;lon;timestamp;pressure;altitude;pressure_sealevel;temperature;humidity
77281;BME280;66339;47.262;17.144;2023-08-17T00:01:04;100431.53;;;24.64;62.35
77281;BME280;66339;47.262;17.144;2023-08-17T00:03:31;100435.66;;;24.61;62.41
77281;BME280;66339;47.262;17.144;2023-08-17T00:06:03;100435.66;;;24.61;62.38
77281;BME280;66339;47.262;17.144;2023-08-17T00:08:35;100427.25;;;24.63;62.30
77281;BME280;66339;47.262;17.144;2023-08-17T00:11:02;100431.38;;;24.60;62.34
77281;BME280;66339;47.262;17.144;2023-08-17T00:13:30;100417.03;;;24.60;62.34
77281;BME280;66339;47.262;17.144;2023-08-17T00:16:05;100413.53;;;24.59;62.32
77281;BME280;66339;47.262;17.144;2023-08-17T00:18:34;100422.44;;;24.60;62.31
77281;BME280;66339;47.262;17.144;2023-08-17T00:21:04;100424.66;;;24.58;62.33
77281;BME280;66339;47.262;17.144;2023-08-17T00:23:32;100425.47;;;24.58;62.31
77281;BME280;66339;47.262;17.144;2023-08-17T00:26:14;100428.97;;;24.59;62.22
77281;BME280;66339;47.262;17.144;2023-08-17T00:28:41;100426.25;;;24.59;62.13
77281;BME280;66339;47.262;17.144;2023-08-17T00:31:09;100429.66;;;24.64;61.96
77281;BME280;66339;47.262;17.144;2023-08-17T00:33:36;100434.88;;;24.61;62.03
77281;BME280;66339;47.262;17.144;2023-08-17T00:36:04;100423.25;;;24.60;62.07
77281;BME280;66339;47.262;17.144;2023-08-17T00:38:33;100433.25;;;24.60;62.05
77281;BME280;66339;47.262;17.144;2023-08-17T00:41:03;100434.09;;;24.60;61.98
77281;BME280;66339;47.262;17.144;2023-08-17T00:43:36;100439.31;;;24.57;62.12
77281;BME280;66339;47.262;17.144;2023-08-17T00:46:04;100436.59;;;24.57;62.08
77281;BME280;66339;47.262;17.144;2023-08-17T00:48:32;100450.91;;;24.57;62.04
77281;BME280;66339;47.262;17.144;2023-08-17T00:51:00;100453.13;;;24.55;62.04
77281;BME280;66339;47.262;17.144;2023-08-17T00:53:29;100453.44;;;24.54;62.06
77281;BME280;66339;47.262;17.144;2023-08-17T00:56:01;100442.28;;;24.55;61.97
77281;BME280;66339;47.262;17.144;2023-08-17T00:58:30;100446.91;;;24.55;61.93
77281;BME280;66339;47.262;17.144;2023-08-17T01:00:58;100447.69;;;24.55;61.91
77281;BME280;66339;47.262;17.144;2023-08-17T01:03:29;100445.00;;;24.55;61.81
77281;BME280;66339;47.262;17.144;2023-08-17T01:05:57;100449.28;;;24.56;61.75
77281;BME280;66339;47.262;17.144;2023-08-17T01:08:24;100441.50;;;24.55;61.79
77281;BME280;66339;47.262;17.144;2023-08-17T01:13:48;100442.28;;;24.55;61.75
77281;BME280;66339;47.262;17.144;2023-08-17T01:16:26;100429.87;;;24.54;61.72
77281;BME280;66339;47.262;17.144;2023-08-17T01:18:58;100425.88;;;24.52;61.80
77281;BME280;66339;47.262;17.144;2023-08-17T01:21:35;100429.09;;;24.54;61.76
77281;BME280;66339;47.262;17.144;2023-08-17T01:24:07;100437.81;;;24.51;61.86
77281;BME280;66339;47.262;17.144;2023-08-17T01:26:37;100444.53;;;24.53;61.73
77281;BME280;66339;47.262;17.144;2023-08-17T01:29:07;100432.41;;;24.51;61.82
77281;BME280;66339;47.262;17.144;2023-08-17T01:31:50;100431.28;;;24.52;61.76
77281;BME280;66339;47.262;17.144;2023-08-17T01:34:21;100428.09;;;24.49;61.88
77281;BME280;66339;47.262;17.144;2023-08-17T01:36:52;100431.59;;;24.50;61.90
77281;BME280;66339;47.262;17.144;2023-08-17T01:39:26;100439.72;;;24.50;61.92
77281;BME280;66339;47.262;17.144;2023-08-17T01:41:58;100442.44;;;24.50;62.01
77281;BME280;66339;47.262;17.144;2023-08-17T01:44:27;100439.22;;;24.48;61.95
77281;BME280;66339;47.262;17.144;2023-08-17T01:46:57;100434.31;;;24.50;61.82
77281;BME280;66339;47.262;17.144;2023-08-17T01:49:24;100436.69;;;24.52;61.69
77281;BME280;66339;47.262;17.144;2023-08-17T01:51:53;100442.62;;;24.54;61.64
77281;BME280;66339;47.262;17.144;2023-08-17T01:54:23;100442.62;;;24.54;61.59
77281;BME280;66339;47.262;17.144;2023-08-17T01:56:50;100439.41;;;24.52;61.65
77281;BME280;66339;47.262;17.144;2023-08-17T01:59:25;100436.22;;;24.49;61.70
77281;BME280;66339;47.262;17.144;2023-08-17T02:01:53;100433.53;;;24.49;61.60
77281;BME280;66339;47.262;17.144;2023-08-17T02:04:20;100431.09;;;24.48;61.68
77281;BME280;66339;47.262;17.144;2023-08-17T02:06:50;100428.09;;;24.49;61.60
77281;BME280;66339;47.262;17.144;2023-08-17T02:09:20;100434.63;;;24.48;61.61
77281;BME280;66339;47.262;17.144;2023-08-17T02:11:51;100431.94;;;24.48;61.64
77281;BME280;66339;47.262;17.144;2023-08-17T02:14:21;100428.41;;;24.48;61.62
77281;BME280;66339;47.262;17.144;2023-08-17T02:16:49;100419.19;;;24.49;61.59
77281;BME280;66339;47.262;17.144;2023-08-17T02:19:19;100421.13;;;24.48;61.61
77281;BME280;66339;47.262;17.144;2023-08-17T02:21:47;100424.09;;;24.47;61.63
77281;BME280;66339;47.262;17.144;2023-08-17T02:24:15;100424.91;;;24.47;61.64
77281;BME280;66339;47.262;17.144;2023-08-17T02:26:42;100424.91;;;24.47;61.57
77281;BME280;66339;47.262;17.144;2023-08-17T02:29:09;100423.00;;;24.48;61.53
77281;BME280;66339;47.262;17.144;2023-08-17T02:31:40;100428.72;;;24.46;61.54
77281;BME280;66339;47.262;17.144;2023-08-17T02:34:10;100425.53;;;24.44;61.64
77281;BME280;66339;47.262;17.144;2023-08-17T02:36:38;100423.31;;;24.46;61.52
77281;BME280;66339;47.262;17.144;2023-08-17T02:39:05;100414.72;;;24.44;61.57
77281;BME280;66339;47.262;17.144;2023-08-17T02:41:33;100428.25;;;24.44;61.67
77281;BME280;66339;47.262;17.144;2023-08-17T02:44:01;100420.94;;;24.45;61.47
77281;BME280;66339;47.262;17.144;2023-08-17T02:46:28;100425.22;;;24.46;61.40
77281;BME280;66339;47.262;17.144;2023-08-17T02:48:55;100415.50;;;24.45;61.40
77281;BME280;66339;47.262;17.144;2023-08-17T02:51:23;100426.34;;;24.45;61.36
77281;BME280;66339;47.262;17.144;2023-08-17T02:53:57;100428.25;;;24.44;61.32
77281;BME280;66339;47.262;17.144;2023-08-17T02:56:27;100424.72;;;24.44;61.34
77281;BME280;66339;47.262;17.144;2023-08-17T02:58:55;100428.53;;;24.43;61.32
77281;BME280;66339;47.262;17.144;2023-08-17T03:01:23;100432.53;;;24.45;61.25
77281;BME280;66339;47.262;17.144;2023-08-17T03:03:50;100429.31;;;24.43;61.24
77281;BME280;66339;47.262;17.144;2023-08-17T03:06:20;100421.22;;;24.43;61.19
77281;BME280;66339;47.262;17.144;2023-08-17T03:08:54;100425.03;;;24.42;61.15
77281;BME280;66339;47.262;17.144;2023-08-17T03:11:22;100427.72;;;24.42;61.14
77281;BME280;66339;47.262;17.144;2023-08-17T03:13:50;100418.50;;;24.43;61.11
77281;BME280;66339;47.262;17.144;2023-08-17T03:16:18;100421.81;;;24.40;61.13
77281;BME280;66339;47.262;17.144;2023-08-17T03:18:49;100428.34;;;24.39;61.19
77281;BME280;66339;47.262;17.144;2023-08-17T03:21:16;100417.53;;;24.39;61.16
77281;BME280;66339;47.262;17.144;2023-08-17T03:23:43;100418.31;;;24.40;61.12
77281;BME280;66339;47.262;17.144;2023-08-17T03:26:11;100428.34;;;24.39;61.18
77281;BME280;66339;47.262;17.144;2023-08-17T03:28:39;100428.34;;;24.39;61.16
77281;BME280;66339;47.262;17.144;2023-08-17T03:31:08;100428.34;;;24.39;61.14
77281;BME280;66339;47.262;17.144;2023-08-17T03:33:39;100433.25;;;24.37;61.21
77281;BME280;66339;47.262;17.144;2023-08-17T03:36:10;100431.31;;;24.38;61.23
77281;BME280;66339;47.262;17.144;2023-08-17T03:38:38;100427.84;;;24.37;61.16
77281;BME280;66339;47.262;17.144;2023-08-17T03:41:06;100435.94;;;24.37;61.22
77281;BME280;66339;47.262;17.144;2023-08-17T03:43:33;100430.53;;;24.37;61.24
77281;BME280;66339;47.262;17.144;2023-08-17T03:46:04;100434.31;;;24.36;61.35
77281;BME280;66339;47.262;17.144;2023-08-17T03:48:31;100435.94;;;24.37;61.34
77281;BME280;66339;47.262;17.144;2023-08-17T03:51:01;100441.94;;;24.34;61.47
77281;BME280;66339;47.262;17.144;2023-08-17T03:53:28;100442.97;;;24.38;61.28
77281;BME280;66339;47.262;17.144;2023-08-17T03:56:00;100446.16;;;24.40;61.09
77281;BME280;66339;47.262;17.144;2023-08-17T03:58:31;100437.56;;;24.38;61.10
77281;BME280;66339;47.262;17.144;2023-08-17T04:00:59;100438.66;;;24.37;61.06
77281;BME280;66339;47.262;17.144;2023-08-17T04:03:26;100435.16;;;24.37;61.08
77281;BME280;66339;47.262;17.144;2023-08-17T04:05:54;100449.47;;;24.37;61.02
77281;BME280;66339;47.262;17.144;2023-08-17T04:08:22;100450.53;;;24.36;61.02
77281;BME280;66339;47.262;17.144;2023-08-17T04:10:52;100442.16;;;24.38;60.98
77281;BME280;66339;47.262;17.144;2023-08-17T04:13:21;100448.94;;;24.35;61.07
77281;BME280;66339;47.262;17.144;2023-08-17T04:15:52;100443.53;;;24.35;61.03
77281;BME280;66339;47.262;17.144;2023-08-17T04:18:19;100439.25;;;24.34;61.04
77281;BME280;66339;47.262;17.144;2023-08-17T04:20:48;100441.94;;;24.34;61.04
77281;BME280;66339;47.262;17.144;2023-08-17T04:23:17;100441.94;;;24.34;61.03
77281;BME280;66339;47.262;17.144;2023-08-17T04:25:49;100443.53;;;24.35;61.00
77281;BME280;66339;47.262;17.144;2023-08-17T04:28:19;100443.53;;;24.35;60.93
77281;BME280;66339;47.262;17.144;2023-08-17T04:30:52;100442.75;;;24.35;60.94
77281;BME280;66339;47.262;17.144;2023-08-17T04:33:23;100442.75;;;24.35;60.91
77281;BME280;66339;47.262;17.144;2023-08-17T04:35:51;100446.25;;;24.35;60.83
77281;BME280;66339;47.262;17.144;2023-08-17T04:38:25;100441.16;;;24.34;60.91
77281;BME280;66339;47.262;17.144;2023-08-17T04:40:53;100454.97;;;24.32;60.95
77281;BME280;66339;47.262;17.144;2023-08-17T04:43:20;100450.37;;;24.33;60.91
77281;BME280;66339;47.262;17.144;2023-08-17T04:45:50;100451.47;;;24.32;60.94
77281;BME280;66339;47.262;17.144;2023-08-17T04:48:17;100450.37;;;24.33;60.87
77281;BME280;66339;47.262;17.144;2023-08-17T04:50:48;100459.28;;;24.33;60.80
77281;BME280;66339;47.262;17.144;2023-08-17T04:53:15;100462.00;;;24.33;60.77
77281;BME280;66339;47.262;17.144;2023-08-17T04:55:42;100446.56;;;24.34;60.70
77281;BME280;66339;47.262;17.144;2023-08-17T04:58:10;100460.37;;;24.32;60.82
77281;BME280;66339;47.262;17.144;2023-08-17T05:00:43;100461.78;;;24.30;60.95
77281;BME280;66339;47.262;17.144;2023-08-17T05:03:14;100460.50;;;24.27;61.00
77281;BME280;66339;47.262;17.144;2023-08-17T05:05:58;100457.47;;;24.29;60.95
77281;BME280;66339;47.262;17.144;2023-08-17T05:08:29;100451.91;;;24.25;61.14
77281;BME280;66339;47.262;17.144;2023-08-17T05:11:00;100460.00;;;24.25;61.17
77281;BME280;66339;47.262;17.144;2023-08-17T05:13:27;100461.59;;;24.26;61.15
77281;BME280;66339;47.262;17.144;2023-08-17T05:16:00;100461.59;;;24.26;61.19
77281;BME280;66339;47.262;17.144;2023-08-17T05:18:34;100462.06;;;24.28;61.06
77281;BME280;66339;47.262;17.144;2023-08-17T05:21:05;100463.38;;;24.31;60.59
77281;BME280;66339;47.262;17.144;2023-08-17T05:23:36;100466.09;;;24.31;60.40
77281;BME280;66339;47.262;17.144;2023-08-17T05:26:04;100464.78;;;24.28;60.22
77281;BME280;66339;47.262;17.144;2023-08-17T05:28:32;100473.22;;;24.27;60.14
77281;BME280;66339;47.262;17.144;2023-08-17T05:31:06;100473.00;;;24.23;60.11
77281;BME280;66339;47.262;17.144;2023-08-17T05:33:39;100475.22;;;24.21;60.12
77281;BME280;66339;47.262;17.144;2023-08-17T05:36:10;100476.31;;;24.20;60.12
77281;BME280;66339;47.262;17.144;2023-08-17T05:38:39;100469.62;;;24.17;60.08
77281;BME280;66339;47.262;17.144;2023-08-17T05:41:12;100471.03;;;24.15;60.10
77281;BME280;66339;47.262;17.144;2023-08-17T05:43:48;100467.03;;;24.12;60.19
77281;BME280;66339;47.262;17.144;2023-08-17T05:46:16;100469.16;;;24.02;60.45
77281;BME280;66339;47.262;17.144;2023-08-17T05:48:50;100464.94;;;23.95;60.68
77281;BME280;66339;47.262;17.144;2023-08-17T05:51:17;100457.37;;;23.84;60.94
77281;BME280;66339;47.262;17.144;2023-08-17T05:53:47;100459.88;;;23.80;61.37
77281;BME280;66339;47.262;17.144;2023-08-17T05:56:18;100462.38;;;23.76;61.67
77281;BME280;66339;47.262;17.144;2023-08-17T05:58:46;100479.38;;;23.77;61.83
77281;BME280;66339;47.262;17.144;2023-08-17T06:01:13;100474.06;;;23.72;61.95
77281;BME280;66339;47.262;17.144;2023-08-17T06:03:47;100484.87;;;23.72;61.97
77281;BME280;66339;47.262;17.144;2023-08-17T06:06:15;100474.06;;;23.72;62.26
77281;BME280;66339;47.262;17.144;2023-08-17T06:08:42;100473.59;;;23.70;62.36
77281;BME280;66339;47.262;17.144;2023-08-17T06:11:11;100481.69;;;23.70;62.55
77281;BME280;66339;47.262;17.144;2023-08-17T06:13:47;100473.63;;;23.65;62.97
77281;BME280;66339;47.262;17.144;2023-08-17T06:16:14;100481.69;;;23.70;63.24
77281;BME280;66339;47.262;17.144;2023-08-17T06:18:47;100488.37;;;23.72;63.43
77281;BME280;66339;47.262;17.144;2023-08-17T06:21:22;100495.69;;;23.72;63.48
77281;BME280;66339;47.262;17.144;2023-08-17T06:23:50;100489.16;;;23.73;63.64
77281;BME280;66339;47.262;17.144;2023-08-17T06:26:20;100493.50;;;23.74;63.59
77281;BME280;66339;47.262;17.144;2023-08-17T06:28:53;100489.97;;;23.73;63.62
77281;BME280;66339;47.262;17.144;2023-08-17T06:31:24;100488.88;;;23.74;63.78
77281;BME280;66339;47.262;17.144;2023-08-17T06:33:53;100486.97;;;23.75;64.09
77281;BME280;66339;47.262;17.144;2023-08-17T06:36:22;100491.59;;;23.74;63.91
77281;BME280;66339;47.262;17.144;2023-08-17T06:38:53;100482.69;;;23.74;64.17
77281;BME280;66339;47.262;17.144;2023-08-17T06:41:20;100482.06;;;23.77;64.21
77281;BME280;66339;47.262;17.144;2023-08-17T06:43:50;100484.87;;;23.72;64.47
77281;BME280;66339;47.262;17.144;2023-08-17T06:46:17;100491.37;;;23.71;64.42
77281;BME280;66339;47.262;17.144;2023-08-17T06:48:52;100486.47;;;23.73;64.56
77281;BME280;66339;47.262;17.144;2023-08-17T06:51:19;100487.47;;;23.77;64.49
77281;BME280;66339;47.262;17.144;2023-08-17T06:53:50;100492.28;;;23.80;64.58
77281;BME280;66339;47.262;17.144;2023-08-17T06:56:20;100491.69;;;23.83;64.88
77281;BME280;66339;47.262;17.144;2023-08-17T06:58:47;100495.69;;;23.86;64.90
77281;BME280;66339;47.262;17.144;2023-08-17T07:01:17;100490.28;;;23.86;64.57
77281;BME280;66339;47.262;17.144;2023-08-17T07:03:47;100484.56;;;23.87;64.46
77281;BME280;66339;47.262;17.144;2023-08-17T07:06:21;100488.06;;;23.88;64.53
77281;BME280;66339;47.262;17.144;2023-08-17T07:08:50;100482.66;;;23.88;64.61
77281;BME280;66339;47.262;17.144;2023-08-17T07:11:18;100483.47;;;23.88;64.70
77281;BME280;66339;47.262;17.144;2023-08-17T07:13:44;100483.47;;;23.88;64.57
77281;BME280;66339;47.262;17.144;2023-08-17T07:16:12;100481.88;;;23.87;64.80
77281;BME280;66339;47.262;17.144;2023-08-17T07:18:39;100478.84;;;23.89;64.74
77281;BME280;66339;47.262;17.144;2023-08-17T07:21:09;100478.06;;;23.88;64.64
77281;BME280;66339;47.262;17.144;2023-08-17T07:23:36;100483.97;;;23.90;64.37
77281;BME280;66339;47.262;17.144;2023-08-17T07:26:06;100479.97;;;23.88;64.87
77281;BME280;66339;47.262;17.144;2023-08-17T07:28:33;100481.28;;;23.90;65.31
77281;BME280;66339;47.262;17.144;2023-08-17T07:31:03;100480.06;;;23.96;65.07
77281;BME280;66339;47.262;17.144;2023-08-17T07:33:30;100485.66;;;24.00;65.22
77281;BME280;66339;47.262;17.144;2023-08-17T07:35:59;100476.94;;;24.03;65.36
77281;BME280;66339;47.262;17.144;2023-08-17T07:38:29;100479.84;;;24.07;65.00
77281;BME280;66339;47.262;17.144;2023-08-17T07:40:56;100480.84;;;24.11;64.90
77281;BME280;66339;47.262;17.144;2023-08-17T07:43:23;100473.22;;;24.13;64.73
77281;BME280;66339;47.262;17.144;2023-08-17T07:45:54;100472.13;;;24.14;64.54
77281;BME280;66339;47.262;17.144;2023-08-17T07:48:21;100479.12;;;24.15;64.52
77281;BME280;66339;47.262;17.144;2023-08-17T07:50:48;100478.03;;;24.16;64.26
77281;BME280;66339;47.262;17.144;2023-08-17T07:53:19;100482.81;;;24.19;64.31
77281;BME280;66339;47.262;17.144;2023-08-17T07:55:46;100487.91;;;24.20;64.64
77281;BME280;66339;47.262;17.144;2023-08-17T07:58:18;100486.03;;;24.21;64.80
77281;BME280;66339;47.262;17.144;2023-08-17T08:00:45;100486.53;;;24.23;64.56
77281;BME280;66339;47.262;17.144;2023-08-17T08:03:13;100487.03;;;24.25;64.83
77281;BME280;66339;47.262;17.144;2023-08-17T08:05:46;100483.22;;;24.26;64.72
77281;BME280;66339;47.262;17.144;2023-08-17T08:08:13;100491.81;;;24.28;64.81
77281;BME280;66339;47.262;17.144;2023-08-17T08:10:43;100488.31;;;24.28;64.64
77281;BME280;66339;47.262;17.144;2023-08-17T08:13:15;100485.31;;;24.29;64.00
77281;BME280;66339;47.262;17.144;2023-08-17T08:15:43;100492.00;;;24.32;64.02
77281;BME280;66339;47.262;17.144;2023-08-17T08:18:10;100488.22;;;24.33;64.33
77281;BME280;66339;47.262;17.144;2023-08-17T08:20:37;100489.81;;;24.34;64.28
77281;BME280;66339;47.262;17.144;2023-08-17T08:23:09;100490.59;;;24.34;64.11
77281;BME280;66339;47.262;17.144;2023-08-17T08:25:36;100488.37;;;24.36;64.21
77281;BME280;66339;47.262;17.144;2023-08-17T08:28:05;100485.41;;;24.38;64.51
77281;BME280;66339;47.262;17.144;2023-08-17T08:30:37;100479.19;;;24.37;64.43
77281;BME280;66339;47.262;17.144;2023-08-17T08:33:10;100479.69;;;24.39;64.52
77281;BME280;66339;47.262;17.144;2023-08-17T08:35:38;100479.69;;;24.39;64.71
77281;BME280;66339;47.262;17.144;2023-08-17T08:38:09;100477.50;;;24.41;65.00
77281;BME280;66339;47.262;17.144;2023-08-17T08:40:39;100469.88;;;24.43;65.05
77281;BME280;66339;47.262;17.144;2023-08-17T08:43:12;100464.19;;;24.45;64.80
77281;BME280;66339;47.262;17.144;2023-08-17T08:45:42;100462.28;;;24.45;64.78
77281;BME280;66339;47.262;17.144;2023-08-17T08:48:11;100459.25;;;24.47;64.83
77281;BME280;66339;47.262;17.144;2023-08-17T08:50:42;100463.53;;;24.48;65.08
77281;BME280;66339;47.262;17.144;2023-08-17T08:53:13;100458.47;;;24.46;64.80
77281;BME280;66339;47.262;17.144;2023-08-17T08:56:17;100453.56;;;24.48;65.04
77281;BME280;66339;47.262;17.144;2023-08-17T08:58:42;100456.75;;;24.51;65.04
77281;BME280;66339;47.262;17.144;2023-08-17T09:01:14;100455.62;;;24.52;64.52
77281;BME280;66339;47.262;17.144;2023-08-17T09:03:43;100463.75;;;24.52;64.66
77281;BME280;66339;47.262;17.144;2023-08-17T09:06:12;100465.34;;;24.53;64.84
77281;BME280;66339;47.262;17.144;2023-08-17T09:08:41;100457.72;;;24.55;64.83
77281;BME280;66339;47.262;17.144;2023-08-17T09:11:08;100453.91;;;24.56;65.13
77281;BME280;66339;47.262;17.144;2023-08-17T09:13:39;100456.63;;;24.56;65.15
77281;BME280;66339;47.262;17.144;2023-08-17T09:16:14;100450.13;;;24.57;65.05
77281;BME280;66339;47.262;17.144;2023-08-17T09:18:57;100445.50;;;24.57;64.92
77281;BME280;66339;47.262;17.144;2023-08-17T09:21:25;100445.19;;;24.59;64.94
77281;BME280;66339;47.262;17.144;2023-08-17T09:23:55;100453.00;;;24.60;65.07
77281;BME280;66339;47.262;17.144;2023-08-17T09:26:30;100445.69;;;24.61;64.98
77281;BME280;66339;47.262;17.144;2023-08-17T09:29:20;100448.88;;;24.63;65.16
77281;BME280;66339;47.262;17.144;2023-08-17T09:31:48;100444.25;;;24.63;64.93
77281;BME280;66339;47.262;17.144;2023-08-17T09:34:15;100446.03;;;24.68;64.64
77281;BME280;66339;47.262;17.144;2023-08-17T09:36:47;100442.25;;;24.69;64.63
77281;BME280;66339;47.262;17.144;2023-08-17T09:39:20;100438.44;;;24.70;64.66
77281;BME280;66339;47.262;17.144;2023-08-17T09:41:55;100435.72;;;24.70;64.77
77281;BME280;66339;47.262;17.144;2023-08-17T09:44:22;100442.72;;;24.71;64.83
77281;BME280;66339;47.262;17.144;2023-08-17T09:46:50;100439.22;;;24.70;64.69
77281;BME280;66339;47.262;17.144;2023-08-17T09:49:30;100437.63;;;24.69;64.47
77281;BME280;66339;47.262;17.144;2023-08-17T09:52:10;100436.84;;;24.69;64.46
77281;BME280;66339;47.262;17.144;2023-08-17T09:54:55;100437.63;;;24.69;64.84
77281;BME280;66339;47.262;17.144;2023-08-17T09:57:27;100437.63;;;24.69;64.64
77281;BME280;66339;47.262;17.144;2023-08-17T10:00:02;100443.84;;;24.70;64.56
77281;BME280;66339;47.262;17.144;2023-08-17T10:02:32;100439.22;;;24.70;64.70
77281;BME280;66339;47.262;17.144;2023-08-17T10:05:09;100438.44;;;24.70;64.28
77281;BME280;66339;47.262;17.144;2023-08-17T10:07:47;100434.63;;;24.71;64.55
77281;BME280;66339;47.262;17.144;2023-08-17T10:10:15;100438.94;;;24.72;64.03
77281;BME280;66339;47.262;17.144;2023-08-17T10:12:59;100431.62;;;24.72;63.85
77281;BME280;66339;47.262;17.144;2023-08-17T10:15:33;100437.81;;;24.73;63.66
77281;BME280;66339;47.262;17.144;2023-08-17T10:20:58;100430.31;;;24.70;63.74
77281;BME280;66339;47.262;17.144;2023-08-17T10:23:39;100427.63;;;24.70;63.76
77281;BME280;66339;47.262;17.144;2023-08-17T10:26:12;100428.41;;;24.70;63.29
77281;BME280;66339;47.262;17.144;2023-08-17T10:28:39;100427.63;;;24.70;63.98
77281;BME280;66339;47.262;17.144;2023-08-17T10:31:05;100424.41;;;24.68;63.85
77281;BME280;66339;47.262;17.144;2023-08-17T10:33:41;100427.09;;;24.68;63.64
77281;BME280;66339;47.262;17.144;2023-08-17T10:36:09;100423.78;;;24.71;63.70
77281;BME280;66339;47.262;17.144;2023-08-17T10:38:37;100423.78;;;24.71;63.82
77281;BME280;66339;47.262;17.144;2023-08-17T10:41:13;100416.47;;;24.71;63.38
77281;BME280;66339;47.262;17.144;2023-08-17T10:43:57;100418.88;;;24.73;63.53
77281;BME280;66339;47.262;17.144;2023-08-17T10:46:33;100410.16;;;24.76;63.62
77281;BME280;66339;47.262;17.144;2023-08-17T10:49:02;100417.44;;;24.76;63.55
77281;BME280;66339;47.262;17.144;2023-08-17T10:51:34;100417.16;;;24.77;63.60
77281;BME280;66339;47.262;17.144;2023-08-17T10:54:02;100410.16;;;24.76;63.46
77281;BME280;66339;47.262;17.144;2023-08-17T10:56:30;100419.53;;;24.79;63.33
77281;BME280;66339;47.262;17.144;2023-08-17T10:59:00;100415.72;;;24.80;63.32
77281;BME280;66339;47.262;17.144;2023-08-17T11:01:34;100413.19;;;24.83;63.29
77281;BME280;66339;47.262;17.144;2023-08-17T11:04:12;100418.62;;;24.83;63.16
77281;BME280;66339;47.262;17.144;2023-08-17T11:06:39;100419.13;;;24.85;63.04
77281;BME280;66339;47.262;17.144;2023-08-17T11:09:08;100418.50;;;24.88;62.57
77281;BME280;66339;47.262;17.144;2023-08-17T11:11:37;100414.69;;;24.89;62.61
77281;BME280;66339;47.262;17.144;2023-08-17T11:14:09;100412.44;;;24.91;62.87
77281;BME280;66339;47.262;17.144;2023-08-17T11:16:37;100414.88;;;24.93;62.50
77281;BME280;66339;47.262;17.144;2023-08-17T11:19:12;100418.84;;;24.95;62.40
77281;BME280;66339;47.262;17.144;2023-08-17T11:21:39;100413.44;;;24.95;62.08
77281;BME280;66339;47.262;17.144;2023-08-17T11:24:09;100412.03;;;24.98;62.09
77281;BME280;66339;47.262;17.144;2023-08-17T11:26:36;100407.41;;;24.98;62.17
77281;BME280;66339;47.262;17.144;2023-08-17T11:29:03;100411.41;;;25.01;62.23
77281;BME280;66339;47.262;17.144;2023-08-17T11:31:31;100417.28;;;25.03;62.21
77281;BME280;66339;47.262;17.144;2023-08-17T11:34:02;100417.00;;;25.05;62.00
77281;BME280;66339;47.262;17.144;2023-08-17T11:36:32;100419.09;;;25.08;61.99
77281;BME280;66339;47.262;17.144;2023-08-17T11:39:02;100415.78;;;25.11;61.62
77281;BME280;66339;47.262;17.144;2023-08-17T11:41:29;100414.69;;;25.12;61.53
77281;BME280;66339;47.262;17.144;2023-08-17T11:43:57;100412.44;;;25.14;61.34
77281;BME280;66339;47.262;17.144;2023-08-17T11:46:24;100408.31;;;25.16;61.34
77281;BME280;66339;47.262;17.144;2023-08-17T11:48:58;100403.72;;;25.17;61.24
77281;BME280;66339;47.262;17.144;2023-08-17T11:51:31;100405.28;;;25.18;61.13
77281;BME280;66339;47.262;17.144;2023-08-17T11:54:00;100398.28;;;25.17;61.41
77281;BME280;66339;47.262;17.144;2023-08-17T11:56:30;100397.97;;;25.18;61.15
77281;BME280;66339;47.262;17.144;2023-08-17T11:59:08;100401.19;;;25.20;61.09
77281;BME280;66339;47.262;17.144;2023-08-17T12:01:36;100400.84;;;25.22;60.99
77281;BME280;66339;47.262;17.144;2023-08-17T12:04:07;100395.44;;;25.22;60.94
77281;BME280;66339;47.262;17.144;2023-08-17T12:06:45;100385.41;;;25.22;60.91
77281;BME280;66339;47.262;17.144;2023-08-17T12:09:24;100387.03;;;25.24;61.04
77281;BME280;66339;47.262;17.144;2023-08-17T12:11:58;100378.59;;;25.25;60.95
77281;BME280;66339;47.262;17.144;2023-08-17T12:14:30;100391.31;;;25.25;61.30
77281;BME280;66339;47.262;17.144;2023-08-17T12:17:02;100380.16;;;25.26;61.36
77281;BME280;66339;47.262;17.144;2023-08-17T12:19:30;100380.16;;;25.26;61.16
77281;BME280;66339;47.262;17.144;2023-08-17T12:22:03;100376.37;;;25.27;61.11
77281;BME280;66339;47.262;17.144;2023-08-17T12:24:37;100374.12;;;25.29;61.22
77281;BME280;66339;47.262;17.144;2023-08-17T12:27:12;100372.22;;;25.30;61.40
77281;BME280;66339;47.262;17.144;2023-08-17T12:29:46;100370.31;;;25.30;61.43
77281;BME280;66339;47.262;17.144;2023-08-17T12:32:16;100368.09;;;25.32;61.24
77281;BME280;66339;47.262;17.144;2023-08-17T12:34:46;100363.81;;;25.31;61.62
77281;BME280;66339;47.262;17.144;2023-08-17T12:37:20;100362.69;;;25.32;61.78
77281;BME280;66339;47.262;17.144;2023-08-17T12:39:50;100361.56;;;25.33;61.53
77281;BME280;66339;47.262;17.144;2023-08-17T12:42:20;100357.75;;;25.34;61.60
77281;BME280;66339;47.262;17.144;2023-08-17T12:44:48;100352.81;;;25.36;61.90
77281;BME280;66339;47.262;17.144;2023-08-17T12:47:25;100350.91;;;25.37;61.54
77281;BME280;66339;47.262;17.144;2023-08-17T12:50:00;100345.16;;;25.38;61.38
77281;BME280;66339;47.262;17.144;2023-08-17T12:52:37;100342.16;;;25.40;61.59
77281;BME280;66339;47.262;17.144;2023-08-17T12:55:04;100341.03;;;25.41;62.15
77281;BME280;66339;47.262;17.144;2023-08-17T12:57:34;100337.22;;;25.42;61.65
77281;BME280;66339;47.262;17.144;2023-08-17T13:00:09;100345.84;;;25.44;61.65
77281;BME280;66339;47.262;17.144;2023-08-17T13:02:41;100339.63;;;25.43;61.63